Main page
METAR-TAF:

METAR-TAF

Airports :

RAF Mildenhall

Mildenhall, England

latitude: 52-22N, longitude: 000-29E, elevation: 10 m

Current weather observation

The report was made 40 minutes ago, at 03:56 UTC
Wind 3 kt from the West
Temperature 15°C
Humidity 100%
Pressure 1014 hPa
Visibility 10 km or more
Overcast at a height of 11000 ft

METAR: EGUN 220356Z AUTO 27003KT 9999 OVC110 15/15 A2995 RMK AO2 SLP145 T01500150 .

Time: 05:36 (04:36 UTC)

Forecast

The report was made 40 minutes ago, at 03:56 UTC
Forecast valid from 22 at 04 UTC to 23 at 10 UTC
Wind 6 kt from variable directions
Visibility 10 km or more
Few clouds at a height of 4500 ft
Few clouds at a height of 25000 ft
Becoming
from 22 at 09 UTC to 22 at 10 UTC
Wind 8 kt from the West
Visibility 10 km or more
Broken clouds at a height of 4500 ft

TAF: EGUN 220356Z 2204/2310 VRB06KT 9999 FEW045 FEW250 QNH2995INS BECMG 2209/2210 28008KT 9999 BKN045 QNH2997INS TX26/2215Z TN13/2204Z

Weather observations and forecasts of more than 4000 airports (METAR and TAF reports).

The available stations are represented by yellow and red dots on the map.

Hover mouse over dot to see the name of the station.

Then click to see weather observations and forecasts.

To change the map : click on the green buttons with a black cross to zoom in, on the green button with a dash to zoom out, or on the green arrows for adjacent maps.


METAR-TAF: